Time;durP1;ratioP1;P1;durP2;ratioP2;P2;SDS_P1;SDS_P2;PMS_P1;PMS_P2;Temp;Humidity;BMP_temperature;BMP_pressure;BME280_temperature;BME280_humidity;BME280_pressure;Samples;Min_cycle;Max_cycle;Signal;HPM_P1;HPM_P2
2023/08/23 00:00:16;;;;;;;8.98;7.90;;;14.80;99.90;;;;;;5079257;28;20044;-43
2023/08/23 00:02:42;;;;;;;7.47;6.63;;;14.80;99.90;;;;;;5078617;28;20487;-41
2023/08/23 00:05:08;;;;;;;9.40;8.50;;;14.80;99.90;;;;;;5059999;28;20151;-38
2023/08/23 00:07:33;;;;;;;7.80;7.10;;;14.80;99.90;;;;;;5060356;28;20048;-38
2023/08/23 00:09:59;;;;;;;10.77;7.75;;;14.80;99.90;;;;;;5059369;28;20052;-42
2023/08/23 00:12:25;;;;;;;8.07;7.28;;;14.80;99.90;;;;;;5059451;28;20060;-40
2023/08/23 00:14:50;;;;;;;7.70;7.00;;;14.80;99.90;;;;;;5056305;28;20044;-39
2023/08/23 00:17:16;;;;;;;8.48;7.68;;;14.70;99.90;;;;;;5056827;28;20093;-41
2023/08/23 00:19:41;;;;;;;9.88;8.98;;;14.70;99.90;;;;;;5058690;28;20479;-39
2023/08/23 00:22:07;;;;;;;10.98;8.25;;;14.70;99.90;;;;;;5066268;28;20080;-39
2023/08/23 00:24:33;;;;;;;8.90;7.90;;;14.60;99.90;;;;;;5076206;28;20331;-42
2023/08/23 00:26:59;;;;;;;8.38;7.57;;;14.60;99.90;;;;;;5076191;28;20086;-42
2023/08/23 00:29:24;;;;;;;6.97;6.13;;;14.60;99.90;;;;;;5076801;28;20117;-40
2023/08/23 00:31:50;;;;;;;7.00;6.30;;;14.60;99.90;;;;;;5076154;28;20085;-41
2023/08/23 00:34:16;;;;;;;8.00;7.30;;;14.60;99.90;;;;;;5075384;28;20839;-40
2023/08/23 00:36:41;;;;;;;8.30;7.53;;;14.60;99.90;;;;;;5075225;28;20048;-41
2023/08/23 00:39:07;;;;;;;8.68;7.88;;;14.60;99.90;;;;;;5076827;28;20055;-42
2023/08/23 00:41:32;;;;;;;8.02;7.32;;;14.60;99.90;;;;;;5075858;28;20094;-40
2023/08/23 00:43:58;;;;;;;9.77;8.20;;;14.60;99.90;;;;;;5076703;28;20508;-40
2023/08/23 00:46:24;;;;;;;7.68;6.97;;;14.60;99.90;;;;;;5076495;28;20786;-42
2023/08/23 00:48:50;;;;;;;9.45;8.55;;;14.60;99.90;;;;;;5076015;28;20048;-41
2023/08/23 00:51:18;;;;;;;9.35;8.40;;;14.60;99.90;;;;;;5071760;28;20052;-41
2023/08/23 00:53:44;;;;;;;9.38;8.25;;;14.60;99.90;;;;;;5074393;28;20196;-40
2023/08/23 00:56:10;;;;;;;11.90;10.48;;;14.60;99.90;;;;;;5074368;28;20499;-40
2023/08/23 00:58:36;;;;;;;11.40;10.30;;;14.60;99.90;;;;;;5063185;28;20387;-41
2023/08/23 01:01:02;;;;;;;12.10;10.90;;;14.50;99.90;;;;;;5074905;28;20074;-42
2023/08/23 01:03:28;;;;;;;12.52;10.68;;;14.40;99.90;;;;;;5075724;28;20056;-38
2023/08/23 01:06:06;;;;;;;12.07;9.82;;;14.40;99.90;;;;;;5075684;28;20102;-42
2023/08/23 01:08:41;;;;;;;10.07;9.02;;;14.40;99.90;;;;;;5066712;28;20052;-43
2023/08/23 01:11:12;;;;;;;10.93;9.82;;;14.40;99.90;;;;;;5072518;28;20880;-40
2023/08/23 01:13:59;;;;;;;11.05;10.05;;;14.50;99.90;;;;;;5074174;28;20489;-44
2023/08/23 01:16:25;;;;;;;10.20;9.27;;;14.50;99.90;;;;;;5052546;28;20049;-40
2023/08/23 01:18:54;;;;;;;9.93;9.02;;;14.60;99.90;;;;;;5050650;28;20052;-39
2023/08/23 01:21:26;;;;;;;9.50;8.63;;;14.60;99.90;;;;;;5053803;28;20056;-40
2023/08/23 01:23:53;;;;;;;9.82;8.93;;;14.60;99.90;;;;;;5049951;28;20052;-39
2023/08/23 01:26:18;;;;;;;10.35;9.35;;;14.60;99.90;;;;;;5055550;28;20049;-42
2023/08/23 01:28:47;;;;;;;9.05;8.30;;;14.60;99.90;;;;;;5055000;28;20068;-40
2023/08/23 01:31:14;;;;;;;9.43;8.50;;;14.60;99.90;;;;;;5055731;28;20524;-42
2023/08/23 01:33:47;;;;;;;12.32;8.73;;;14.60;99.90;;;;;;5054898;28;20127;-39
2023/08/23 01:36:15;;;;;;;9.50;8.57;;;14.60;99.90;;;;;;5056221;28;20052;-40
2023/08/23 01:38:42;;;;;;;10.48;9.48;;;14.70;99.90;;;;;;5072533;28;20054;-41
2023/08/23 01:41:08;;;;;;;11.05;9.75;;;14.70;99.90;;;;;;5075477;28;20131;-38
2023/08/23 01:43:33;;;;;;;20.40;9.68;;;14.70;99.90;;;;;;5074612;28;20104;-44
2023/08/23 01:45:59;;;;;;;9.75;8.85;;;14.70;99.90;;;;;;5075838;28;20067;-44
2023/08/23 01:48:25;;;;;;;9.23;8.32;;;14.70;99.90;;;;;;5075366;28;20043;-40
2023/08/23 01:50:52;;;;;;;11.75;8.77;;;14.60;99.90;;;;;;5075044;28;20426;-39
2023/08/23 01:53:17;;;;;;;9.35;8.55;;;14.70;99.90;;;;;;5053092;28;20052;-38
2023/08/23 01:55:43;;;;;;;10.80;9.70;;;14.70;99.90;;;;;;5065428;28;20121;-39
2023/08/23 01:58:08;;;;;;;15.88;11.10;;;14.70;99.90;;;;;;5074902;28;20048;-44
2023/08/23 02:00:34;;;;;;;10.38;9.38;;;14.70;99.90;;;;;;5065401;28;20349;-40
2023/08/23 02:03:01;;;;;;;11.07;9.98;;;14.70;99.90;;;;;;5052162;28;20052;-39
2023/08/23 02:05:29;;;;;;;10.38;9.43;;;14.70;99.90;;;;;;5053298;28;20106;-40
2023/08/23 02:07:54;;;;;;;10.80;9.65;;;14.60;99.90;;;;;;5053439;28;20060;-40
2023/08/23 02:10:20;;;;;;;9.27;8.48;;;14.60;99.90;;;;;;5054292;28;20150;-42
2023/08/23 02:12:46;;;;;;;9.88;8.88;;;14.60;99.90;;;;;;5055135;28;20045;-39
2023/08/23 02:15:11;;;;;;;7.88;7.18;;;14.60;99.90;;;;;;5051997;28;20102;-37
2023/08/23 02:17:37;;;;;;;8.80;8.00;;;14.60;99.90;;;;;;5057968;28;20052;-40
2023/08/23 02:20:03;;;;;;;8.75;8.00;;;14.60;99.90;;;;;;5054134;28;20135;-39
2023/08/23 02:22:29;;;;;;;8.50;7.80;;;14.60;99.90;;;;;;5064905;28;20770;-40
2023/08/23 02:24:54;;;;;;;10.48;9.57;;;14.50;99.90;;;;;;5073858;28;20092;-42
2023/08/23 02:27:20;;;;;;;9.55;7.95;;;14.50;99.90;;;;;;5074306;28;20094;-42
2023/08/23 02:29:45;;;;;;;9.50;8.23;;;14.40;99.90;;;;;;5073182;28;20059;-42
2023/08/23 02:32:11;;;;;;;9.95;9.00;;;14.50;99.90;;;;;;5072545;28;20073;-38
2023/08/23 02:34:37;;;;;;;13.60;11.23;;;14.40;99.90;;;;;;5074075;28;20516;-40
2023/08/23 02:37:03;;;;;;;13.13;11.65;;;14.40;99.90;;;;;;5073707;28;20040;-40
2023/08/23 02:39:28;;;;;;;14.32;12.93;;;14.40;99.90;;;;;;5073999;28;20050;-42
2023/08/23 02:41:54;;;;;;;16.30;13.50;;;14.30;99.90;;;;;;5073397;28;20040;-40
2023/08/23 02:44:20;;;;;;;16.70;14.02;;;14.20;99.90;;;;;;5071830;28;20055;-42
2023/08/23 02:46:45;;;;;;;15.30;13.80;;;14.20;99.90;;;;;;5073015;28;20186;-41
2023/08/23 02:49:11;;;;;;;17.55;15.68;;;14.10;99.90;;;;;;5074567;28;20140;-39
2023/08/23 02:51:37;;;;;;;18.60;16.63;;;14.20;99.90;;;;;;5066189;28;20044;-38
2023/08/23 02:54:03;;;;;;;21.05;15.88;;;14.20;99.90;;;;;;5053939;28;20052;-40
2023/08/23 02:56:29;;;;;;;19.45;17.35;;;14.20;99.90;;;;;;5070671;28;20044;-43
2023/08/23 02:58:55;;;;;;;21.73;16.70;;;14.20;99.90;;;;;;5074589;28;20616;-39
2023/08/23 03:01:20;;;;;;;21.98;17.02;;;14.30;99.90;;;;;;5073468;28;20055;-41
2023/08/23 03:03:46;;;;;;;22.45;18.63;;;14.30;99.90;;;;;;5073408;28;20118;-38
2023/08/23 03:06:12;;;;;;;22.67;18.92;;;14.30;99.90;;;;;;5074235;28;20055;-42
2023/08/23 03:08:37;;;;;;;22.40;19.13;;;14.30;99.90;;;;;;5074334;28;20113;-38
2023/08/23 03:11:04;;;;;;;27.85;21.45;;;14.30;99.90;;;;;;5073156;28;20616;-40
2023/08/23 03:13:30;;;;;;;26.02;21.08;;;14.30;99.90;;;;;;5073817;28;20050;-40
2023/08/23 03:15:56;;;;;;;23.50;19.38;;;14.30;99.90;;;;;;5051747;28;20083;-43
2023/08/23 03:18:22;;;;;;;25.13;20.38;;;14.30;99.90;;;;;;5049080;28;20133;-38
2023/08/23 03:20:51;;;;;;;19.52;17.38;;;14.30;99.90;;;;;;5049398;28;20063;-40
2023/08/23 03:23:18;;;;;;;22.45;18.35;;;14.30;99.90;;;;;;5049691;28;20098;-39
2023/08/23 03:25:45;;;;;;;19.83;17.67;;;14.40;99.90;;;;;;5054151;28;20052;-39
2023/08/23 03:28:11;;;;;;;20.35;18.17;;;14.40;99.90;;;;;;5064597;28;20547;-40
2023/08/23 03:30:37;;;;;;;25.20;20.25;;;14.40;99.90;;;;;;5073232;28;20109;-39
2023/08/23 03:33:03;;;;;;;24.38;19.15;;;14.50;99.90;;;;;;5072260;28;20169;-39
2023/08/23 03:35:28;;;;;;;26.05;21.80;;;14.50;99.90;;;;;;5073608;28;20113;-42
2023/08/23 03:37:54;;;;;;;24.50;21.60;;;14.50;99.90;;;;;;5073857;28;20602;-41
2023/08/23 03:40:20;;;;;;;26.42;22.58;;;14.50;99.90;;;;;;5071575;28;20044;-42
2023/08/23 03:42:45;;;;;;;29.02;23.00;;;14.60;99.90;;;;;;5071941;28;20704;-39
2023/08/23 03:45:11;;;;;;;27.08;22.33;;;14.60;99.90;;;;;;5072042;28;20056;-42
2023/08/23 03:47:37;;;;;;;29.67;23.92;;;14.50;99.90;;;;;;5073961;28;20127;-42
2023/08/23 03:50:03;;;;;;;30.63;22.52;;;14.50;99.90;;;;;;5072826;28;20051;-40
2023/08/23 03:52:29;;;;;;;29.65;24.45;;;14.50;99.90;;;;;;5074704;28;20111;-42
2023/08/23 03:54:54;;;;;;;31.08;23.35;;;14.50;99.90;;;;;;5075838;28;20052;-40
2023/08/23 03:57:20;;;;;;;30.70;24.83;;;14.50;99.90;;;;;;5077727;28;20048;-41
2023/08/23 03:59:46;;;;;;;33.33;23.65;;;14.50;99.90;;;;;;5077461;28;20066;-41
2023/08/23 04:02:11;;;;;;;32.42;25.80;;;14.50;99.90;;;;;;5057049;28;20041;-40
2023/08/23 04:04:37;;;;;;;33.85;26.02;;;14.50;99.90;;;;;;5054887;28;20918;-42
2023/08/23 04:07:02;;;;;;;26.35;22.80;;;14.50;99.90;;;;;;5055698;28;20998;-38
2023/08/23 04:09:28;;;;;;;26.80;23.90;;;14.50;99.90;;;;;;5056170;28;20634;-42
2023/08/23 04:11:54;;;;;;;28.92;23.38;;;14.60;99.90;;;;;;5057406;28;20059;-37
2023/08/23 04:14:19;;;;;;;26.35;22.45;;;14.60;99.90;;;;;;5052506;28;20083;-41
2023/08/23 04:16:45;;;;;;;27.10;21.35;;;14.60;99.90;;;;;;5057298;28;20375;-38
2023/08/23 04:19:11;;;;;;;26.50;22.55;;;14.60;99.90;;;;;;5051403;28;20805;-41
2023/08/23 04:21:36;;;;;;;25.73;22.75;;;14.60;99.90;;;;;;5076350;28;20487;-43
2023/08/23 04:24:02;;;;;;;27.33;24.00;;;14.70;99.90;;;;;;5055576;28;20411;-41
2023/08/23 04:26:27;;;;;;;27.27;23.35;;;14.70;99.90;;;;;;5076337;28;20847;-41
2023/08/23 04:28:53;;;;;;;29.80;24.50;;;14.80;99.90;;;;;;5077232;28;20334;-41
2023/08/23 04:31:19;;;;;;;26.02;22.13;;;14.70;99.90;;;;;;5076877;28;20048;-40
2023/08/23 04:33:45;;;;;;;28.88;23.83;;;14.80;99.90;;;;;;5074212;28;20538;-40
2023/08/23 04:36:10;;;;;;;28.58;24.83;;;14.90;99.90;;;;;;5076697;28;20052;-38
2023/08/23 04:38:36;;;;;;;25.30;22.55;;;14.90;99.90;;;;;;5075951;28;20059;-40
2023/08/23 04:41:04;;;;;;;26.60;23.17;;;14.90;99.90;;;;;;5075233;28;20051;-43
2023/08/23 04:43:30;;;;;;;26.73;23.88;;;14.90;99.90;;;;;;5076488;28;20054;-38
2023/08/23 04:45:55;;;;;;;26.35;22.23;;;14.90;99.90;;;;;;5076973;28;20609;-38
2023/08/23 04:48:23;;;;;;;25.00;22.38;;;14.90;99.90;;;;;;5076332;28;20043;-40
2023/08/23 04:50:55;;;;;;;27.08;24.27;;;14.90;99.90;;;;;;5076512;28;20055;-44
2023/08/23 04:53:21;;;;;;;27.48;23.95;;;14.90;99.90;;;;;;5054772;28;20124;-38
2023/08/23 04:55:48;;;;;;;25.88;23.13;;;14.90;99.90;;;;;;5057665;28;20104;-39
2023/08/23 04:58:14;;;;;;;26.45;23.65;;;14.90;99.90;;;;;;5056955;28;20593;-39
2023/08/23 05:00:39;;;;;;;26.27;23.50;;;15.00;99.90;;;;;;5055858;28;20048;-40
2023/08/23 05:03:06;;;;;;;27.73;23.95;;;14.90;99.90;;;;;;5054411;28;20084;-38
2023/08/23 05:05:31;;;;;;;27.02;24.17;;;15.00;99.90;;;;;;5056632;28;20052;-42
2023/08/23 05:07:57;;;;;;;28.85;23.63;;;15.00;99.90;;;;;;5054892;28;20122;-42
2023/08/23 05:10:23;;;;;;;26.23;23.30;;;15.10;99.90;;;;;;5055355;28;20052;-40
2023/08/23 05:12:48;;;;;;;25.63;22.95;;;15.10;99.90;;;;;;5055516;28;20052;-42
2023/08/23 05:15:14;;;;;;;29.48;23.02;;;15.10;99.90;;;;;;5053307;28;20062;-41
2023/08/23 05:17:40;;;;;;;27.13;23.08;;;15.10;99.90;;;;;;5055440;28;20515;-38
2023/08/23 05:20:06;;;;;;;26.77;24.00;;;15.10;99.90;;;;;;5046674;28;20055;-38
2023/08/23 05:22:32;;;;;;;27.75;24.25;;;15.20;99.90;;;;;;5051681;28;20495;-42
2023/08/23 05:24:57;;;;;;;25.55;22.85;;;15.30;99.90;;;;;;5057072;28;20052;-40
2023/08/23 05:27:23;;;;;;;24.20;21.60;;;15.40;99.90;;;;;;5056520;28;20486;-41
2023/08/23 05:29:50;;;;;;;26.10;21.42;;;15.70;99.90;;;;;;5067080;28;20458;-40
2023/08/23 05:32:15;;;;;;;25.70;22.80;;;15.70;99.90;;;;;;5062518;28;20058;-38
2023/08/23 05:34:41;;;;;;;24.13;21.83;;;15.70;99.90;;;;;;5064183;28;20044;-41
2023/08/23 05:37:07;;;;;;;26.40;23.55;;;15.60;99.90;;;;;;5059881;28;20048;-38
2023/08/23 05:39:33;;;;;;;22.20;20.20;;;16.40;99.90;;;;;;5075686;28;20048;-41
2023/08/23 05:41:58;;;;;;;20.88;18.98;;;17.70;99.90;;;;;;5075315;28;20044;-42
2023/08/23 05:44:24;;;;;;;17.90;16.30;;;19.00;99.90;;;;;;5075290;28;20413;-41
2023/08/23 05:46:49;;;;;;;17.52;15.88;;;20.20;99.90;;;;;;5075034;28;20457;-44
2023/08/23 05:49:16;;;;;;;17.23;15.73;;;21.40;99.90;;;;;;5075781;28;20493;-40
2023/08/23 05:51:42;;;;;;;16.15;14.65;;;22.40;99.90;;;;;;5073520;28;20055;-39
2023/08/23 05:54:07;;;;;;;16.65;15.13;;;23.00;99.90;;;;;;5074997;28;20577;-45
2023/08/23 05:56:33;;;;;;;17.02;15.32;;;23.60;99.90;;;;;;5075269;28;20171;-42
2023/08/23 05:58:59;;;;;;;16.85;15.05;;;23.80;99.90;;;;;;5075202;28;20108;-42
2023/08/23 06:01:24;;;;;;;15.70;14.30;;;23.30;99.90;;;;;;5074775;28;20047;-42
2023/08/23 06:03:50;;;;;;;16.02;14.43;;;22.70;99.90;;;;;;5074772;28;20586;-42
2023/08/23 06:06:16;;;;;;;15.82;14.43;;;22.10;99.90;;;;;;5074933;28;20044;-40
2023/08/23 06:08:41;;;;;;;16.73;15.13;;;21.70;99.90;;;;;;5074803;28;20425;-39
2023/08/23 06:11:07;;;;;;;18.67;16.98;;;21.30;99.90;;;;;;5074222;28;20117;-41
2023/08/23 06:13:33;;;;;;;17.98;16.23;;;20.80;99.90;;;;;;5074235;28;20124;-43
2023/08/23 06:15:58;;;;;;;17.10;15.40;;;20.40;99.90;;;;;;5051723;28;20600;-43
2023/08/23 06:18:24;;;;;;;17.77;16.13;;;20.40;99.90;;;;;;5048504;28;20934;-42
2023/08/23 06:20:50;;;;;;;17.40;15.70;;;20.50;99.90;;;;;;5067331;28;20554;-43
2023/08/23 06:23:16;;;;;;;16.23;14.85;;;21.00;99.90;;;;;;5066636;28;20048;-39
2023/08/23 06:25:41;;;;;;;17.58;15.98;;;21.60;99.90;;;;;;5073562;28;20406;-40
2023/08/23 06:28:08;;;;;;;15.90;14.35;;;22.60;99.90;;;;;;5074945;28;20044;-39
2023/08/23 06:30:37;;;;;;;18.10;16.13;;;23.60;99.90;;;;;;5072652;28;20452;-43
2023/08/23 06:33:05;;;;;;;18.27;16.58;;;23.60;99.90;;;;;;5074243;28;20117;-45
2023/08/23 06:35:31;;;;;;;20.30;18.38;;;22.90;99.90;;;;;;5072971;28;20100;-44
2023/08/23 06:37:57;;;;;;;19.63;17.63;;;22.20;99.90;;;;;;5073507;28;20055;-44
2023/08/23 06:40:24;;;;;;;19.40;17.50;;;22.20;99.90;;;;;;5069393;28;20560;-39
2023/08/23 06:42:50;;;;;;;22.75;20.25;;;22.40;99.90;;;;;;5064809;28;20079;-43
2023/08/23 06:45:15;;;;;;;23.00;20.73;;;21.90;99.90;;;;;;5073393;28;20402;-40
2023/08/23 06:47:41;;;;;;;23.15;20.85;;;21.40;99.90;;;;;;5074430;28;20055;-42
2023/08/23 06:50:07;;;;;;;23.52;21.10;;;21.00;99.90;;;;;;5073261;28;20059;-41
2023/08/23 06:52:33;;;;;;;25.10;22.58;;;20.70;99.90;;;;;;5060383;28;20041;-40
2023/08/23 06:54:58;;;;;;;25.30;22.80;;;20.60;99.90;;;;;;5065929;28;20151;-44
2023/08/23 06:57:30;;;;;;;25.23;22.67;;;20.40;99.90;;;;;;5052076;28;20047;-42
2023/08/23 06:59:59;;;;;;;26.80;24.07;;;20.30;99.90;;;;;;5052243;28;20044;-42
2023/08/23 07:02:25;;;;;;;26.60;23.23;;;20.20;99.90;;;;;;5049996;28;20295;-40
2023/08/23 07:04:52;;;;;;;25.60;22.92;;;20.20;99.90;;;;;;5059072;28;20048;-46
2023/08/23 07:07:21;;;;;;;24.92;22.30;;;20.20;99.90;;;;;;5073901;28;20056;-40
2023/08/23 07:09:47;;;;;;;28.40;24.15;;;20.80;99.90;;;;;;5072955;28;20382;-44
2023/08/23 07:12:13;;;;;;;26.73;23.92;;;21.10;99.90;;;;;;5059521;28;20415;-41
2023/08/23 07:14:38;;;;;;;25.35;22.85;;;21.60;99.90;;;;;;5062808;28;20124;-43
2023/08/23 07:17:04;;;;;;;28.70;25.70;;;22.00;99.90;;;;;;5053124;28;20048;-44
2023/08/23 07:19:30;;;;;;;27.58;24.70;;;21.90;99.90;;;;;;5052857;28;20075;-43
2023/08/23 07:21:57;;;;;;;30.02;26.02;;;21.80;99.90;;;;;;5050793;28;20135;-41
2023/08/23 07:24:23;;;;;;;34.17;30.48;;;21.90;99.90;;;;;;5054796;28;20052;-40
2023/08/23 07:26:48;;;;;;;32.08;28.73;;;22.10;99.90;;;;;;5057096;28;20395;-43
2023/08/23 07:29:16;;;;;;;33.80;30.08;;;22.40;99.90;;;;;;5057569;28;20075;-45
2023/08/23 07:31:43;;;;;;;28.98;26.00;;;22.60;99.90;;;;;;5054367;28;20048;-43
2023/08/23 07:34:09;;;;;;;30.80;27.60;;;22.80;99.90;;;;;;5055425;28;20149;-45
2023/08/23 07:36:35;;;;;;;30.58;27.05;;;22.90;99.90;;;;;;5057959;28;20064;-41
2023/08/23 07:39:01;;;;;;;27.98;23.52;;;22.90;99.90;;;;;;5054644;28;20117;-40
2023/08/23 07:41:26;;;;;;;25.00;19.92;;;23.00;99.90;;;;;;5057193;28;20470;-39
2023/08/23 07:43:52;;;;;;;19.48;17.52;;;23.00;99.90;;;;;;5057252;28;20476;-41
2023/08/23 07:46:18;;;;;;;21.00;18.80;;;23.20;99.90;;;;;;5065223;28;20097;-47
2023/08/23 07:48:44;;;;;;;18.10;16.23;;;23.20;99.90;;;;;;5058481;28;20244;-41
2023/08/23 07:51:09;;;;;;;16.88;14.98;;;23.40;99.90;;;;;;5055312;28;20040;-43
2023/08/23 07:53:36;;;;;;;16.77;15.00;;;23.40;99.90;;;;;;5056620;28;20044;-40
2023/08/23 07:56:02;;;;;;;18.38;15.98;;;23.40;99.90;;;;;;5055528;28;20048;-43
2023/08/23 07:58:28;;;;;;;19.30;15.63;;;23.40;99.90;;;;;;5057473;28;20045;-42
2023/08/23 08:00:54;;;;;;;20.48;16.80;;;23.30;99.90;;;;;;5056604;28;20454;-43
2023/08/23 08:03:20;;;;;;;16.88;15.13;;;23.00;99.90;;;;;;5056501;28;20147;-44
2023/08/23 08:05:46;;;;;;;18.25;16.48;;;23.00;99.90;;;;;;5057867;28;20040;-43
2023/08/23 08:08:12;;;;;;;17.60;15.82;;;23.00;99.90;;;;;;5068447;28;20048;-41
2023/08/23 08:10:38;;;;;;;21.08;18.95;;;23.20;99.90;;;;;;5070719;28;20040;-43
2023/08/23 08:13:04;;;;;;;22.77;20.45;;;23.10;99.90;;;;;;5077083;28;20351;-42
2023/08/23 08:15:31;;;;;;;22.38;20.02;;;23.00;99.90;;;;;;5060063;28;20052;-41
2023/08/23 08:17:57;;;;;;;20.77;18.63;;;22.80;99.90;;;;;;5060063;28;20081;-44
2023/08/23 08:20:24;;;;;;;20.95;18.98;;;22.80;99.90;;;;;;5062852;28;20040;-40
2023/08/23 08:22:50;;;;;;;22.50;20.23;;;22.70;99.90;;;;;;5067353;28;20131;-41
2023/08/23 08:25:16;;;;;;;23.40;21.00;;;22.60;99.90;;;;;;5077205;28;20044;-40
2023/08/23 08:27:42;;;;;;;22.95;20.52;;;22.80;99.90;;;;;;5076843;28;20083;-39
2023/08/23 08:30:08;;;;;;;20.88;18.73;;;22.90;99.90;;;;;;5076292;28;20457;-43
2023/08/23 08:32:33;;;;;;;22.45;20.08;;;23.10;99.90;;;;;;5074846;28;20055;-43
2023/08/23 08:35:00;;;;;;;23.13;20.83;;;23.20;99.90;;;;;;5076738;28;20036;-42
2023/08/23 08:37:26;;;;;;;21.05;18.85;;;23.30;99.90;;;;;;5075702;28;20121;-43
2023/08/23 08:39:51;;;;;;;22.55;20.40;;;23.40;99.90;;;;;;5066185;28;20156;-39
2023/08/23 08:42:17;;;;;;;24.23;20.25;;;23.30;99.90;;;;;;5076532;28;20032;-39
2023/08/23 08:44:46;;;;;;;22.45;20.15;;;23.40;99.90;;;;;;5075196;28;20479;-39
2023/08/23 08:47:12;;;;;;;21.63;19.63;;;23.50;99.90;;;;;;5068945;28;20391;-39
2023/08/23 08:49:38;;;;;;;21.08;18.73;;;23.60;99.90;;;;;;5070142;28;20495;-39
2023/08/23 08:52:05;;;;;;;21.50;19.27;;;23.60;99.90;;;;;;5067859;28;20531;-39
2023/08/23 08:54:34;;;;;;;21.13;19.17;;;23.60;99.90;;;;;;5055943;28;20044;-41
2023/08/23 08:57:00;;;;;;;23.30;20.90;;;23.40;99.90;;;;;;5056360;28;20044;-44
2023/08/23 08:59:26;;;;;;;23.90;21.48;;;23.40;99.90;;;;;;5055212;28;20146;-40
2023/08/23 09:01:54;;;;;;;21.88;20.08;;;23.50;99.90;;;;;;5062433;28;20846;-40
2023/08/23 09:04:20;;;;;;;22.58;20.27;;;23.40;99.90;;;;;;5075151;28;20517;-43
2023/08/23 09:06:47;;;;;;;21.55;19.15;;;23.20;99.90;;;;;;5076302;28;20527;-44
2023/08/23 09:09:12;;;;;;;19.77;17.83;;;23.10;99.90;;;;;;5075993;28;20109;-41
2023/08/23 09:11:39;;;;;;;20.13;18.23;;;23.20;99.90;;;;;;5075405;28;20421;-44
2023/08/23 09:14:14;;;;;;;18.65;16.15;;;23.40;99.90;;;;;;5058347;28;20327;-42
2023/08/23 09:16:40;;;;;;;17.17;14.88;;;23.60;99.90;;;;;;5051702;28;20059;-43
2023/08/23 09:19:10;;;;;;;17.58;14.57;;;23.70;99.90;;;;;;5056033;28;20049;-44
2023/08/23 09:21:35;;;;;;;16.05;14.38;;;23.70;99.90;;;;;;5084152;28;20161;-43
2023/08/23 09:24:02;;;;;;;15.55;12.93;;;23.60;99.90;;;;;;5052635;28;20565;-44
2023/08/23 09:26:27;;;;;;;14.63;13.23;;;23.50;99.90;;;;;;5053179;28;20382;-41
2023/08/23 09:28:53;;;;;;;17.50;14.43;;;23.70;99.90;;;;;;5045371;28;20079;-42
2023/08/23 09:31:19;;;;;;;18.83;14.73;;;24.00;99.90;;;;;;5050358;28;20574;-43
2023/08/23 09:33:46;;;;;;;17.50;11.75;;;24.10;99.90;;;;;;5053968;28;20079;-42
2023/08/23 09:36:22;;;;;;;13.23;11.20;;;24.30;99.90;;;;;;5050906;28;20055;-42
2023/08/23 09:38:48;;;;;;;14.70;13.05;;;24.50;99.90;;;;;;5050510;28;20053;-44
2023/08/23 09:41:13;;;;;;;17.42;11.43;;;24.40;99.90;;;;;;5054158;28;20055;-41
2023/08/23 09:43:40;;;;;;;12.88;10.23;;;24.60;99.90;;;;;;5049185;28;20048;-43
2023/08/23 09:46:08;;;;;;;14.35;10.82;;;24.90;99.90;;;;;;5051939;28;20074;-42
2023/08/23 09:48:34;;;;;;;12.20;9.10;;;25.10;99.90;;;;;;5052422;28;20425;-40
2023/08/23 09:51:02;;;;;;;14.15;9.93;;;25.10;99.90;;;;;;5052381;28;20037;-47
2023/08/23 09:53:34;;;;;;;9.45;7.70;;;25.30;99.90;;;;;;5042143;28;20048;-40
2023/08/23 09:56:02;;;;;;;9.63;6.43;;;25.20;99.90;;;;;;5043761;28;20538;-43
2023/08/23 09:58:28;;;;;;;9.55;6.63;;;25.40;99.90;;;;;;5043922;28;20069;-40
2023/08/23 10:00:55;;;;;;;9.65;6.50;;;25.50;99.90;;;;;;5043803;28;20468;-43
2023/08/23 10:03:22;;;;;;;12.98;7.40;;;25.40;99.90;;;;;;5040461;28;20040;-44
2023/08/23 10:05:50;;;;;;;13.35;9.25;;;25.20;99.90;;;;;;5037193;28;20064;-44
2023/08/23 10:08:18;;;;;;;9.15;6.97;;;25.00;99.90;;;;;;5039175;28;20036;-45
2023/08/23 10:10:45;;;;;;;10.10;7.00;;;25.20;99.90;;;;;;5041506;28;20052;-43
2023/08/23 10:13:11;;;;;;;9.85;7.82;;;25.10;99.90;;;;;;5052895;28;20049;-46
2023/08/23 10:15:39;;;;;;;10.50;7.57;;;25.20;99.90;;;;;;5049119;28;20110;-42
2023/08/23 10:18:09;;;;;;;14.50;6.80;;;25.20;99.90;;;;;;5077441;28;20561;-42
2023/08/23 10:20:36;;;;;;;14.10;7.63;;;25.30;99.90;;;;;;5054760;28;20048;-41
2023/08/23 10:23:22;;;;;;;8.57;5.97;;;25.30;99.90;;;;;;5049900;28;20067;-43
2023/08/23 10:25:49;;;;;;;11.52;6.72;;;25.30;99.90;;;;;;5037962;28;20052;-45
2023/08/23 10:28:18;;;;;;;8.02;5.10;;;25.30;99.90;;;;;;5038826;28;20045;-45
2023/08/23 10:30:50;;;;;;;8.20;5.82;;;25.30;99.90;;;;;;5036636;28;20554;-40
2023/08/23 10:33:18;;;;;;;11.52;5.40;;;25.20;99.90;;;;;;5039080;28;20047;-41
2023/08/23 10:35:45;;;;;;;10.27;7.25;;;25.10;99.90;;;;;;5035908;28;20044;-44
2023/08/23 10:38:11;;;;;;;9.95;5.47;;;25.10;99.90;;;;;;5046386;28;20179;-39
2023/08/23 10:40:39;;;;;;;10.02;3.95;;;25.10;99.90;;;;;;5019425;28;20040;-44
2023/08/23 10:43:16;;;;;;;10.10;3.97;;;25.10;99.90;;;;;;5039964;28;20044;-44
2023/08/23 10:45:50;;;;;;;9.13;4.80;;;25.10;99.90;;;;;;5040514;28;20141;-44
2023/08/23 10:48:18;;;;;;;8.73;5.00;;;25.20;99.90;;;;;;5048062;28;20370;-40
2023/08/23 10:50:45;;;;;;;6.63;3.58;;;25.20;99.90;;;;;;5023330;28;20040;-43
2023/08/23 10:53:11;;;;;;;8.77;4.10;;;25.30;99.90;;;;;;5046190;28;20499;-43
2023/08/23 10:55:37;;;;;;;7.90;3.72;;;25.30;99.90;;;;;;5046309;28;20052;-40
2023/08/23 10:58:03;;;;;;;6.18;3.42;;;25.20;99.90;;;;;;5051214;28;20041;-46
2023/08/23 11:00:29;;;;;;;4.90;2.53;;;25.40;99.90;;;;;;5050708;28;20154;-42
2023/08/23 11:02:58;;;;;;;7.30;2.83;;;25.40;99.90;;;;;;5048999;28;20037;-46
2023/08/23 11:05:24;;;;;;;8.00;2.70;;;25.40;99.90;;;;;;5052809;28;20048;-41
2023/08/23 11:07:50;;;;;;;6.78;2.83;;;25.40;99.90;;;;;;5043096;28;20380;-43
2023/08/23 11:10:16;;;;;;;7.28;2.90;;;25.50;99.90;;;;;;5044689;28;20056;-45
2023/08/23 11:12:42;;;;;;;4.88;2.75;;;25.60;99.90;;;;;;5047609;28;20049;-42
2023/08/23 11:15:08;;;;;;;5.93;2.72;;;25.60;99.90;;;;;;5050066;28;20052;-45
2023/08/23 11:17:34;;;;;;;32.95;5.03;;;25.70;99.90;;;;;;5051124;28;20055;-44
2023/08/23 11:20:00;;;;;;;6.90;3.08;;;25.80;99.90;;;;;;5051247;28;20044;-43
2023/08/23 11:22:26;;;;;;;4.22;2.45;;;25.80;99.90;;;;;;5050171;28;20569;-41
2023/08/23 11:24:52;;;;;;;7.05;2.17;;;25.80;99.90;;;;;;5046639;28;20297;-42
2023/08/23 11:27:19;;;;;;;9.27;2.38;;;25.80;99.90;;;;;;5051706;28;20090;-43
2023/08/23 11:29:45;;;;;;;8.10;2.70;;;25.90;99.90;;;;;;5048746;28;20052;-40
2023/08/23 11:32:15;;;;;;;5.63;2.35;;;26.10;99.90;;;;;;5051677;28;20087;-43
2023/08/23 11:34:41;;;;;;;3.20;1.95;;;26.20;99.90;;;;;;5051442;28;20392;-43
2023/08/23 11:37:08;;;;;;;5.65;2.28;;;26.20;99.90;;;;;;5051500;28;20849;-42
2023/08/23 11:39:34;;;;;;;3.67;2.10;;;26.20;99.90;;;;;;5053239;28;20094;-43
2023/08/23 11:42:00;;;;;;;3.08;1.90;;;26.10;99.90;;;;;;5053098;28;20049;-47
2023/08/23 11:44:27;;;;;;;4.63;1.85;;;26.20;99.90;;;;;;5050333;28;20048;-40
2023/08/23 11:46:55;;;;;;;3.03;1.77;;;26.30;99.20;;;;;;5053720;28;20521;-40
2023/08/23 11:49:22;;;;;;;3.97;1.75;;;26.40;99.90;;;;;;5052676;28;20451;-42
2023/08/23 11:51:49;;;;;;;5.32;1.83;;;26.40;99.90;;;;;;5051437;28;20064;-45
2023/08/23 11:54:16;;;;;;;6.32;1.77;;;26.60;99.90;;;;;;5051122;28;20055;-43
2023/08/23 11:56:43;;;;;;;4.20;2.25;;;26.50;99.80;;;;;;5051779;28;20068;-39
2023/08/23 11:59:13;;;;;;;6.88;2.10;;;26.40;99.90;;;;;;5049711;28;20310;-47
2023/08/23 12:01:39;;;;;;;7.55;2.78;;;26.50;99.90;;;;;;5050015;28;20102;-42
2023/08/23 12:04:08;;;;;;;4.68;2.58;;;26.60;99.90;;;;;;5049054;28;20921;-46
2023/08/23 12:06:34;;;;;;;6.10;2.05;;;26.80;99.90;;;;;;5049320;28;20056;-40
2023/08/23 12:09:00;;;;;;;15.90;3.00;;;27.00;99.90;;;;;;5049093;28;20036;-43
2023/08/23 12:11:25;;;;;;;6.63;2.45;;;27.20;99.90;;;;;;5050755;28;20045;-40
2023/08/23 12:13:52;;;;;;;3.60;2.28;;;27.30;99.90;;;;;;5053812;28;20029;-42
2023/08/23 12:16:18;;;;;;;7.88;3.03;;;27.20;99.90;;;;;;5046727;28;20071;-40
2023/08/23 12:18:46;;;;;;;6.53;3.53;;;27.30;99.90;;;;;;5053207;28;20115;-43
2023/08/23 12:21:12;;;;;;;10.10;3.60;;;27.20;99.90;;;;;;5052452;28;20044;-42
2023/08/23 12:23:38;;;;;;;14.38;4.97;;;27.30;99.90;;;;;;5052581;28;20407;-42
2023/08/23 12:26:03;;;;;;;9.05;4.75;;;27.20;99.90;;;;;;5053001;28;20040;-43
2023/08/23 12:28:29;;;;;;;8.40;4.55;;;27.20;99.90;;;;;;5054632;28;20686;-42